sensor_id;sensor_type;location;lat;lon;timestamp;temperature;humidity
40758;DHT22;26462;47.384;19.218;2023-03-11T00:01:09;10.00;99.90
40758;DHT22;26462;47.384;19.218;2023-03-11T00:03:38;10.00;99.90
40758;DHT22;26462;47.384;19.218;2023-03-11T00:06:05;10.00;99.30
40758;DHT22;26462;47.384;19.218;2023-03-11T00:08:33;9.90;99.90
40758;DHT22;26462;47.384;19.218;2023-03-11T00:11:00;9.80;99.90
40758;DHT22;26462;47.384;19.218;2023-03-11T00:13:28;9.70;99.90
40758;DHT22;26462;47.384;19.218;2023-03-11T00:15:56;9.80;99.20
40758;DHT22;26462;47.384;19.218;2023-03-11T00:18:25;9.80;99.20
40758;DHT22;26462;47.384;19.218;2023-03-11T00:20:57;9.80;97.80
40758;DHT22;26462;47.384;19.218;2023-03-11T00:23:25;9.80;97.60
40758;DHT22;26462;47.384;19.218;2023-03-11T00:25:52;8.80;97.50
40758;DHT22;26462;47.384;19.218;2023-03-11T00:28:20;9.70;98.40
40758;DHT22;26462;47.384;19.218;2023-03-11T00:30:51;9.70;97.90
40758;DHT22;26462;47.384;19.218;2023-03-11T00:33:18;9.70;97.80
40758;DHT22;26462;47.384;19.218;2023-03-11T00:35:46;9.60;97.80
40758;DHT22;26462;47.384;19.218;2023-03-11T00:38:15;9.40;97.50
40758;DHT22;26462;47.384;19.218;2023-03-11T00:40:45;8.30;97.40
40758;DHT22;26462;47.384;19.218;2023-03-11T00:43:13;9.60;97.30
40758;DHT22;26462;47.384;19.218;2023-03-11T00:45:41;9.60;97.10
40758;DHT22;26462;47.384;19.218;2023-03-11T00:48:08;9.70;96.60
40758;DHT22;26462;47.384;19.218;2023-03-11T00:50:36;9.80;96.20
40758;DHT22;26462;47.384;19.218;2023-03-11T00:53:04;9.80;95.70
40758;DHT22;26462;47.384;19.218;2023-03-11T00:55:33;9.70;95.70
40758;DHT22;26462;47.384;19.218;2023-03-11T00:58:06;9.70;96.20
40758;DHT22;26462;47.384;19.218;2023-03-11T01:00:39;9.80;95.20
40758;DHT22;26462;47.384;19.218;2023-03-11T01:03:06;9.70;94.70
40758;DHT22;26462;47.384;19.218;2023-03-11T01:05:34;9.60;94.60
40758;DHT22;26462;47.384;19.218;2023-03-11T01:08:02;9.70;94.40
40758;DHT22;26462;47.384;19.218;2023-03-11T01:10:32;9.70;94.50
40758;DHT22;26462;47.384;19.218;2023-03-11T01:13:01;9.80;93.30
40758;DHT22;26462;47.384;19.218;2023-03-11T01:15:32;9.80;93.50
40758;DHT22;26462;47.384;19.218;2023-03-11T01:17:59;9.90;92.80
40758;DHT22;26462;47.384;19.218;2023-03-11T01:20:27;9.70;93.60
40758;DHT22;26462;47.384;19.218;2023-03-11T01:22:55;9.70;93.20
40758;DHT22;26462;47.384;19.218;2023-03-11T01:25:23;9.70;93.10
40758;DHT22;26462;47.384;19.218;2023-03-11T01:27:52;9.60;93.10
40758;DHT22;26462;47.384;19.218;2023-03-11T01:30:21;9.60;92.70
40758;DHT22;26462;47.384;19.218;2023-03-11T01:32:50;9.70;92.30
40758;DHT22;26462;47.384;19.218;2023-03-11T01:35:20;10.30;92.50
40758;DHT22;26462;47.384;19.218;2023-03-11T01:37:47;9.60;92.40
40758;DHT22;26462;47.384;19.218;2023-03-11T01:43:02;9.70;92.00
40758;DHT22;26462;47.384;19.218;2023-03-11T01:48:18;8.40;91.60
40758;DHT22;26462;47.384;19.218;2023-03-11T01:50:48;9.50;92.20
40758;DHT22;26462;47.384;19.218;2023-03-11T01:53:17;9.30;92.10
40758;DHT22;26462;47.384;19.218;2023-03-11T01:55:46;9.40;92.00
40758;DHT22;26462;47.384;19.218;2023-03-11T01:58:22;9.40;91.50
40758;DHT22;26462;47.384;19.218;2023-03-11T02:00:50;9.40;91.60
40758;DHT22;26462;47.384;19.218;2023-03-11T02:03:25;9.30;91.90
40758;DHT22;26462;47.384;19.218;2023-03-11T02:05:55;9.30;92.00
40758;DHT22;26462;47.384;19.218;2023-03-11T02:08:23;9.30;92.00
40758;DHT22;26462;47.384;19.218;2023-03-11T02:10:53;9.20;92.20
40758;DHT22;26462;47.384;19.218;2023-03-11T02:13:21;9.20;92.10
40758;DHT22;26462;47.384;19.218;2023-03-11T02:15:52;9.10;92.10
40758;DHT22;26462;47.384;19.218;2023-03-11T02:18:20;9.20;92.00
40758;DHT22;26462;47.384;19.218;2023-03-11T02:23:52;9.10;92.10
40758;DHT22;26462;47.384;19.218;2023-03-11T02:29:26;9.20;90.90
40758;DHT22;26462;47.384;19.218;2023-03-11T02:31:55;9.10;91.10
40758;DHT22;26462;47.384;19.218;2023-03-11T02:34:27;9.10;91.20
40758;DHT22;26462;47.384;19.218;2023-03-11T02:36:56;9.10;90.30
40758;DHT22;26462;47.384;19.218;2023-03-11T02:39:45;9.20;90.10
40758;DHT22;26462;47.384;19.218;2023-03-11T02:42:26;9.10;89.30
40758;DHT22;26462;47.384;19.218;2023-03-11T02:47:21;9.10;89.10
40758;DHT22;26462;47.384;19.218;2023-03-11T02:49:48;9.10;88.80
40758;DHT22;26462;47.384;19.218;2023-03-11T02:52:16;9.20;88.80
40758;DHT22;26462;47.384;19.218;2023-03-11T02:54:44;9.20;88.70
40758;DHT22;26462;47.384;19.218;2023-03-11T02:57:11;9.20;88.30
40758;DHT22;26462;47.384;19.218;2023-03-11T02:59:39;9.20;88.30
40758;DHT22;26462;47.384;19.218;2023-03-11T03:02:07;9.10;88.30
40758;DHT22;26462;47.384;19.218;2023-03-11T03:04:35;9.20;86.80
40758;DHT22;26462;47.384;19.218;2023-03-11T03:07:02;9.10;87.90
40758;DHT22;26462;47.384;19.218;2023-03-11T03:09:30;9.10;87.70
40758;DHT22;26462;47.384;19.218;2023-03-11T03:11:58;9.20;86.40
40758;DHT22;26462;47.384;19.218;2023-03-11T03:14:25;9.30;85.40
40758;DHT22;26462;47.384;19.218;2023-03-11T03:16:53;9.40;83.20
40758;DHT22;26462;47.384;19.218;2023-03-11T03:19:20;9.40;83.40
40758;DHT22;26462;47.384;19.218;2023-03-11T03:21:47;9.50;81.90
40758;DHT22;26462;47.384;19.218;2023-03-11T03:24:15;9.60;81.40
40758;DHT22;26462;47.384;19.218;2023-03-11T03:26:45;9.70;80.80
40758;DHT22;26462;47.384;19.218;2023-03-11T03:29:13;9.70;80.80
40758;DHT22;26462;47.384;19.218;2023-03-11T03:31:40;9.70;80.20
40758;DHT22;26462;47.384;19.218;2023-03-11T03:34:08;9.00;78.40
40758;DHT22;26462;47.384;19.218;2023-03-11T03:36:35;9.70;79.70
40758;DHT22;26462;47.384;19.218;2023-03-11T03:39:04;9.80;78.70
40758;DHT22;26462;47.384;19.218;2023-03-11T03:41:35;9.70;77.90
40758;DHT22;26462;47.384;19.218;2023-03-11T03:44:05;9.70;77.40
40758;DHT22;26462;47.384;19.218;2023-03-11T03:46:34;9.60;78.40
40758;DHT22;26462;47.384;19.218;2023-03-11T03:49:03;9.30;75.40
40758;DHT22;26462;47.384;19.218;2023-03-11T03:51:31;9.70;74.30
40758;DHT22;26462;47.384;19.218;2023-03-11T03:54:07;9.70;73.10
40758;DHT22;26462;47.384;19.218;2023-03-11T03:56:35;9.60;72.80
40758;DHT22;26462;47.384;19.218;2023-03-11T03:59:03;9.60;71.90
40758;DHT22;26462;47.384;19.218;2023-03-11T04:01:36;9.50;70.70
40758;DHT22;26462;47.384;19.218;2023-03-11T04:04:04;9.50;70.00
40758;DHT22;26462;47.384;19.218;2023-03-11T04:06:31;9.40;70.30
40758;DHT22;26462;47.384;19.218;2023-03-11T04:09:03;9.50;69.20
40758;DHT22;26462;47.384;19.218;2023-03-11T04:11:33;9.40;69.30
40758;DHT22;26462;47.384;19.218;2023-03-11T04:14:02;9.40;69.20
40758;DHT22;26462;47.384;19.218;2023-03-11T04:16:33;9.30;69.00
40758;DHT22;26462;47.384;19.218;2023-03-11T04:19:05;9.40;70.10
40758;DHT22;26462;47.384;19.218;2023-03-11T04:21:33;9.30;70.50
40758;DHT22;26462;47.384;19.218;2023-03-11T04:24:01;9.20;70.10
40758;DHT22;26462;47.384;19.218;2023-03-11T04:26:32;9.20;70.70
40758;DHT22;26462;47.384;19.218;2023-03-11T04:29:02;9.00;70.10
40758;DHT22;26462;47.384;19.218;2023-03-11T04:31:34;9.10;70.80
40758;DHT22;26462;47.384;19.218;2023-03-11T04:34:04;9.00;70.90
40758;DHT22;26462;47.384;19.218;2023-03-11T04:36:33;8.90;70.30
40758;DHT22;26462;47.384;19.218;2023-03-11T04:39:01;9.10;70.80
40758;DHT22;26462;47.384;19.218;2023-03-11T04:41:35;9.00;71.10
40758;DHT22;26462;47.384;19.218;2023-03-11T04:44:06;8.90;70.30
40758;DHT22;26462;47.384;19.218;2023-03-11T04:46:34;8.90;69.80
40758;DHT22;26462;47.384;19.218;2023-03-11T04:49:06;8.90;69.10
40758;DHT22;26462;47.384;19.218;2023-03-11T04:51:34;8.90;69.70
40758;DHT22;26462;47.384;19.218;2023-03-11T04:54:02;9.00;68.90
40758;DHT22;26462;47.384;19.218;2023-03-11T04:56:32;8.80;67.90
40758;DHT22;26462;47.384;19.218;2023-03-11T04:59:03;8.70;67.80
40758;DHT22;26462;47.384;19.218;2023-03-11T05:01:32;8.60;66.80
40758;DHT22;26462;47.384;19.218;2023-03-11T05:04:04;8.60;62.60
40758;DHT22;26462;47.384;19.218;2023-03-11T05:06:31;8.50;62.20
40758;DHT22;26462;47.384;19.218;2023-03-11T05:09:01;8.40;62.20
40758;DHT22;26462;47.384;19.218;2023-03-11T05:11:35;8.20;62.20
40758;DHT22;26462;47.384;19.218;2023-03-11T05:14:02;8.20;62.40
40758;DHT22;26462;47.384;19.218;2023-03-11T05:16:30;8.10;63.00
40758;DHT22;26462;47.384;19.218;2023-03-11T05:18:59;8.10;63.80
40758;DHT22;26462;47.384;19.218;2023-03-11T05:21:51;7.90;64.70
40758;DHT22;26462;47.384;19.218;2023-03-11T05:24:18;7.90;64.80
40758;DHT22;26462;47.384;19.218;2023-03-11T05:26:48;7.80;64.70
40758;DHT22;26462;47.384;19.218;2023-03-11T05:29:16;7.60;64.80
40758;DHT22;26462;47.384;19.218;2023-03-11T05:31:44;7.70;65.10
40758;DHT22;26462;47.384;19.218;2023-03-11T05:34:14;7.70;66.10
40758;DHT22;26462;47.384;19.218;2023-03-11T05:36:41;7.60;66.00
40758;DHT22;26462;47.384;19.218;2023-03-11T05:39:09;7.50;66.50
40758;DHT22;26462;47.384;19.218;2023-03-11T05:41:36;7.50;66.20
40758;DHT22;26462;47.384;19.218;2023-03-11T05:44:04;5.90;66.20
40758;DHT22;26462;47.384;19.218;2023-03-11T05:46:32;7.90;67.30
40758;DHT22;26462;47.384;19.218;2023-03-11T05:49:01;7.30;67.80
40758;DHT22;26462;47.384;19.218;2023-03-11T05:51:28;7.20;68.30
40758;DHT22;26462;47.384;19.218;2023-03-11T05:53:57;7.30;68.20
40758;DHT22;26462;47.384;19.218;2023-03-11T05:56:33;6.90;68.30
40758;DHT22;26462;47.384;19.218;2023-03-11T05:59:01;7.20;68.70
40758;DHT22;26462;47.384;19.218;2023-03-11T06:01:34;7.30;68.90
40758;DHT22;26462;47.384;19.218;2023-03-11T06:04:02;7.10;68.50
40758;DHT22;26462;47.384;19.218;2023-03-11T06:06:29;7.00;68.70
40758;DHT22;26462;47.384;19.218;2023-03-11T06:08:57;7.30;69.30
40758;DHT22;26462;47.384;19.218;2023-03-11T06:11:27;7.10;67.30
40758;DHT22;26462;47.384;19.218;2023-03-11T06:13:56;7.10;67.90
40758;DHT22;26462;47.384;19.218;2023-03-11T06:16:25;7.00;68.50
40758;DHT22;26462;47.384;19.218;2023-03-11T06:18:56;7.20;69.40
40758;DHT22;26462;47.384;19.218;2023-03-11T06:21:29;7.10;68.60
40758;DHT22;26462;47.384;19.218;2023-03-11T06:23:57;7.00;66.90
40758;DHT22;26462;47.384;19.218;2023-03-11T06:26:26;6.90;66.70
40758;DHT22;26462;47.384;19.218;2023-03-11T06:28:53;6.70;67.60
40758;DHT22;26462;47.384;19.218;2023-03-11T06:31:23;6.90;67.70
40758;DHT22;26462;47.384;19.218;2023-03-11T06:33:52;6.80;67.50
40758;DHT22;26462;47.384;19.218;2023-03-11T06:36:25;6.90;68.40
40758;DHT22;26462;47.384;19.218;2023-03-11T06:38:53;6.80;68.20
40758;DHT22;26462;47.384;19.218;2023-03-11T06:41:23;5.70;67.30
40758;DHT22;26462;47.384;19.218;2023-03-11T06:43:51;6.80;67.90
40758;DHT22;26462;47.384;19.218;2023-03-11T06:46:21;6.80;68.40
40758;DHT22;26462;47.384;19.218;2023-03-11T06:48:50;6.70;68.30
40758;DHT22;26462;47.384;19.218;2023-03-11T06:51:21;6.80;68.50
40758;DHT22;26462;47.384;19.218;2023-03-11T06:53:50;6.80;68.90
40758;DHT22;26462;47.384;19.218;2023-03-11T06:56:21;6.70;66.90
40758;DHT22;26462;47.384;19.218;2023-03-11T06:58:53;6.70;66.80
40758;DHT22;26462;47.384;19.218;2023-03-11T07:01:24;6.70;67.20
40758;DHT22;26462;47.384;19.218;2023-03-11T07:03:53;6.70;66.30
40758;DHT22;26462;47.384;19.218;2023-03-11T07:06:25;6.80;66.20
40758;DHT22;26462;47.384;19.218;2023-03-11T07:09:00;7.00;67.10
40758;DHT22;26462;47.384;19.218;2023-03-11T07:11:29;6.80;66.00
40758;DHT22;26462;47.384;19.218;2023-03-11T07:14:05;6.70;65.90
40758;DHT22;26462;47.384;19.218;2023-03-11T07:16:38;6.90;66.20
40758;DHT22;26462;47.384;19.218;2023-03-11T07:19:13;7.00;64.80
40758;DHT22;26462;47.384;19.218;2023-03-11T07:21:40;6.90;64.40
40758;DHT22;26462;47.384;19.218;2023-03-11T07:24:10;6.90;64.30
40758;DHT22;26462;47.384;19.218;2023-03-11T07:26:40;6.90;64.50
40758;DHT22;26462;47.384;19.218;2023-03-11T07:29:10;6.80;63.70
40758;DHT22;26462;47.384;19.218;2023-03-11T07:31:38;6.80;63.70
40758;DHT22;26462;47.384;19.218;2023-03-11T07:34:06;6.90;63.60
40758;DHT22;26462;47.384;19.218;2023-03-11T07:36:41;6.80;63.40
40758;DHT22;26462;47.384;19.218;2023-03-11T07:39:15;6.90;63.90
40758;DHT22;26462;47.384;19.218;2023-03-11T07:41:43;7.00;63.90
40758;DHT22;26462;47.384;19.218;2023-03-11T07:44:13;6.90;63.20
40758;DHT22;26462;47.384;19.218;2023-03-11T07:46:42;6.90;63.00
40758;DHT22;26462;47.384;19.218;2023-03-11T07:49:10;6.90;64.10
40758;DHT22;26462;47.384;19.218;2023-03-11T07:51:38;6.70;62.90
40758;DHT22;26462;47.384;19.218;2023-03-11T07:54:10;6.70;63.50
40758;DHT22;26462;47.384;19.218;2023-03-11T07:56:37;6.60;63.50
40758;DHT22;26462;47.384;19.218;2023-03-11T07:59:05;7.60;64.10
40758;DHT22;26462;47.384;19.218;2023-03-11T08:01:33;6.90;63.90
40758;DHT22;26462;47.384;19.218;2023-03-11T08:04:08;6.80;63.80
40758;DHT22;26462;47.384;19.218;2023-03-11T08:06:41;6.70;64.00
40758;DHT22;26462;47.384;19.218;2023-03-11T08:09:09;6.90;63.60
40758;DHT22;26462;47.384;19.218;2023-03-11T08:11:37;6.80;63.10
40758;DHT22;26462;47.384;19.218;2023-03-11T08:14:05;7.00;63.50
40758;DHT22;26462;47.384;19.218;2023-03-11T08:16:32;6.30;62.30
40758;DHT22;26462;47.384;19.218;2023-03-11T08:19:00;7.30;62.70
40758;DHT22;26462;47.384;19.218;2023-03-11T08:21:28;7.30;63.40
40758;DHT22;26462;47.384;19.218;2023-03-11T08:23:59;7.20;62.30
40758;DHT22;26462;47.384;19.218;2023-03-11T08:26:27;7.30;63.10
40758;DHT22;26462;47.384;19.218;2023-03-11T08:28:58;7.60;62.90
40758;DHT22;26462;47.384;19.218;2023-03-11T08:31:28;7.50;62.50
40758;DHT22;26462;47.384;19.218;2023-03-11T08:34:08;7.70;61.80
40758;DHT22;26462;47.384;19.218;2023-03-11T08:36:36;7.90;61.00
40758;DHT22;26462;47.384;19.218;2023-03-11T08:39:03;7.90;61.90
40758;DHT22;26462;47.384;19.218;2023-03-11T08:41:33;7.70;61.00
40758;DHT22;26462;47.384;19.218;2023-03-11T08:44:00;7.80;60.90
40758;DHT22;26462;47.384;19.218;2023-03-11T08:46:30;7.60;61.30
40758;DHT22;26462;47.384;19.218;2023-03-11T08:48:59;7.50;61.50
40758;DHT22;26462;47.384;19.218;2023-03-11T08:51:28;7.50;61.60
40758;DHT22;26462;47.384;19.218;2023-03-11T08:53:55;7.30;60.60
40758;DHT22;26462;47.384;19.218;2023-03-11T08:56:23;7.30;61.20
40758;DHT22;26462;47.384;19.218;2023-03-11T08:58:50;7.40;61.50
40758;DHT22;26462;47.384;19.218;2023-03-11T09:01:18;7.30;61.00
40758;DHT22;26462;47.384;19.218;2023-03-11T09:03:46;7.20;61.70
40758;DHT22;26462;47.384;19.218;2023-03-11T09:06:14;7.70;61.40
40758;DHT22;26462;47.384;19.218;2023-03-11T09:08:43;8.00;61.20
40758;DHT22;26462;47.384;19.218;2023-03-11T09:11:10;7.60;60.50
40758;DHT22;26462;47.384;19.218;2023-03-11T09:13:40;7.40;60.60
40758;DHT22;26462;47.384;19.218;2023-03-11T09:16:18;7.50;60.50
40758;DHT22;26462;47.384;19.218;2023-03-11T09:18:48;7.60;60.70
40758;DHT22;26462;47.384;19.218;2023-03-11T09:21:20;7.70;59.90
40758;DHT22;26462;47.384;19.218;2023-03-11T09:23:51;8.00;61.10
40758;DHT22;26462;47.384;19.218;2023-03-11T09:26:24;7.90;60.10
40758;DHT22;26462;47.384;19.218;2023-03-11T09:28:55;7.70;60.10
40758;DHT22;26462;47.384;19.218;2023-03-11T09:31:24;8.00;61.50
40758;DHT22;26462;47.384;19.218;2023-03-11T09:33:53;8.50;62.00
40758;DHT22;26462;47.384;19.218;2023-03-11T09:36:23;8.40;59.60
40758;DHT22;26462;47.384;19.218;2023-03-11T09:38:51;8.20;60.50
40758;DHT22;26462;47.384;19.218;2023-03-11T09:41:28;8.90;60.30
40758;DHT22;26462;47.384;19.218;2023-03-11T09:49:58;8.10;60.70
40758;DHT22;26462;47.384;19.218;2023-03-11T09:55:59;8.90;60.10
40758;DHT22;26462;47.384;19.218;2023-03-11T09:58:33;8.80;60.50
40758;DHT22;26462;47.384;19.218;2023-03-11T10:03:43;8.40;60.00
40758;DHT22;26462;47.384;19.218;2023-03-11T10:06:20;8.40;60.00
40758;DHT22;26462;47.384;19.218;2023-03-11T10:09:01;8.60;60.20
40758;DHT22;26462;47.384;19.218;2023-03-11T10:11:49;8.90;60.90
40758;DHT22;26462;47.384;19.218;2023-03-11T10:20:18;8.40;61.20
40758;DHT22;26462;47.384;19.218;2023-03-11T10:28:45;8.60;60.40
40758;DHT22;26462;47.384;19.218;2023-03-11T10:31:26;7.90;61.90
40758;DHT22;26462;47.384;19.218;2023-03-11T10:34:29;7.70;61.70
40758;DHT22;26462;47.384;19.218;2023-03-11T10:37:24;7.70;62.60
40758;DHT22;26462;47.384;19.218;2023-03-11T10:40:21;7.80;63.10
40758;DHT22;26462;47.384;19.218;2023-03-11T10:42:51;7.60;63.30
40758;DHT22;26462;47.384;19.218;2023-03-11T10:45:21;7.30;62.90
40758;DHT22;26462;47.384;19.218;2023-03-11T10:47:49;7.50;63.70
40758;DHT22;26462;47.384;19.218;2023-03-11T10:50:19;7.60;64.10
40758;DHT22;26462;47.384;19.218;2023-03-11T10:53:12;7.40;63.70
40758;DHT22;26462;47.384;19.218;2023-03-11T10:55:46;7.30;64.10
40758;DHT22;26462;47.384;19.218;2023-03-11T10:58:23;7.40;64.40
40758;DHT22;26462;47.384;19.218;2023-03-11T11:01:14;7.80;64.40
40758;DHT22;26462;47.384;19.218;2023-03-11T11:03:44;7.70;64.20
40758;DHT22;26462;47.384;19.218;2023-03-11T11:06:27;7.10;64.30
40758;DHT22;26462;47.384;19.218;2023-03-11T11:09:20;7.20;64.30
40758;DHT22;26462;47.384;19.218;2023-03-11T11:12:13;7.20;64.40
40758;DHT22;26462;47.384;19.218;2023-03-11T11:14:43;7.10;64.50
40758;DHT22;26462;47.384;19.218;2023-03-11T11:19:48;7.20;65.50
40758;DHT22;26462;47.384;19.218;2023-03-11T11:22:18;6.90;64.70
40758;DHT22;26462;47.384;19.218;2023-03-11T11:24:48;7.40;65.40
40758;DHT22;26462;47.384;19.218;2023-03-11T11:27:22;7.20;64.50
40758;DHT22;26462;47.384;19.218;2023-03-11T11:32:29;7.20;64.70
40758;DHT22;26462;47.384;19.218;2023-03-11T11:35:00;6.90;64.80
40758;DHT22;26462;47.384;19.218;2023-03-11T11:37:36;7.20;64.50
40758;DHT22;26462;47.384;19.218;2023-03-11T11:43:00;7.30;63.10
40758;DHT22;26462;47.384;19.218;2023-03-11T11:45:36;6.20;62.60
40758;DHT22;26462;47.384;19.218;2023-03-11T11:48:13;7.20;62.60
40758;DHT22;26462;47.384;19.218;2023-03-11T11:50:47;7.10;63.10
40758;DHT22;26462;47.384;19.218;2023-03-11T11:53:31;7.20;63.60
40758;DHT22;26462;47.384;19.218;2023-03-11T11:56:01;7.40;63.00
40758;DHT22;26462;47.384;19.218;2023-03-11T11:58:29;7.30;62.10
40758;DHT22;26462;47.384;19.218;2023-03-11T12:09:29;7.70;61.60
40758;DHT22;26462;47.384;19.218;2023-03-11T12:12:57;7.70;62.50
40758;DHT22;26462;47.384;19.218;2023-03-11T12:15:40;7.80;61.90
40758;DHT22;26462;47.384;19.218;2023-03-11T12:20:54;7.60;63.30
40758;DHT22;26462;47.384;19.218;2023-03-11T12:23:39;7.60;63.10
40758;DHT22;26462;47.384;19.218;2023-03-11T12:26:17;7.40;62.10
40758;DHT22;26462;47.384;19.218;2023-03-11T12:29:03;7.80;62.30
40758;DHT22;26462;47.384;19.218;2023-03-11T12:31:36;6.70;61.20
40758;DHT22;26462;47.384;19.218;2023-03-11T12:34:09;8.50;61.10
40758;DHT22;26462;47.384;19.218;2023-03-11T12:36:40;8.40;60.80
40758;DHT22;26462;47.384;19.218;2023-03-11T12:39:29;8.40;60.90
40758;DHT22;26462;47.384;19.218;2023-03-11T12:44:38;7.70;61.10
40758;DHT22;26462;47.384;19.218;2023-03-11T12:49:41;7.80;62.00
40758;DHT22;26462;47.384;19.218;2023-03-11T12:54:48;7.90;61.30
40758;DHT22;26462;47.384;19.218;2023-03-11T12:57:42;7.80;61.10
40758;DHT22;26462;47.384;19.218;2023-03-11T13:08:43;7.90;61.20
40758;DHT22;26462;47.384;19.218;2023-03-11T13:14:31;8.00;60.40
40758;DHT22;26462;47.384;19.218;2023-03-11T13:19:57;8.60;62.10
40758;DHT22;26462;47.384;19.218;2023-03-11T13:23:08;7.30;61.50
40758;DHT22;26462;47.384;19.218;2023-03-11T13:33:47;8.00;61.90
40758;DHT22;26462;47.384;19.218;2023-03-11T13:36:52;8.00;61.50
40758;DHT22;26462;47.384;19.218;2023-03-11T13:39:33;8.00;61.50
40758;DHT22;26462;47.384;19.218;2023-03-11T13:44:56;7.90;61.60
40758;DHT22;26462;47.384;19.218;2023-03-11T13:47:25;7.80;61.00
40758;DHT22;26462;47.384;19.218;2023-03-11T13:50:04;7.90;61.60
40758;DHT22;26462;47.384;19.218;2023-03-11T13:52:35;7.90;61.50
40758;DHT22;26462;47.384;19.218;2023-03-11T13:57:50;7.30;61.50
40758;DHT22;26462;47.384;19.218;2023-03-11T14:00:20;7.30;62.00
40758;DHT22;26462;47.384;19.218;2023-03-11T14:03:00;7.60;62.50
40758;DHT22;26462;47.384;19.218;2023-03-11T14:05:34;7.10;62.70
40758;DHT22;26462;47.384;19.218;2023-03-11T14:11:02;7.00;62.70
40758;DHT22;26462;47.384;19.218;2023-03-11T14:18:44;6.90;63.80
40758;DHT22;26462;47.384;19.218;2023-03-11T14:21:19;7.10;62.80
40758;DHT22;26462;47.384;19.218;2023-03-11T14:23:49;8.40;63.70
40758;DHT22;26462;47.384;19.218;2023-03-11T14:26:19;6.90;62.90
40758;DHT22;26462;47.384;19.218;2023-03-11T14:28:51;6.80;62.80
40758;DHT22;26462;47.384;19.218;2023-03-11T14:42:11;7.00;62.70
40758;DHT22;26462;47.384;19.218;2023-03-11T14:50:15;6.90;64.00
40758;DHT22;26462;47.384;19.218;2023-03-11T14:53:06;6.80;63.90
40758;DHT22;26462;47.384;19.218;2023-03-11T14:55:50;6.70;63.80
40758;DHT22;26462;47.384;19.218;2023-03-11T14:58:40;6.70;63.80
40758;DHT22;26462;47.384;19.218;2023-03-11T15:01:20;6.60;64.00
40758;DHT22;26462;47.384;19.218;2023-03-11T15:04:05;6.70;64.30
40758;DHT22;26462;47.384;19.218;2023-03-11T15:06:37;6.70;64.40
40758;DHT22;26462;47.384;19.218;2023-03-11T15:09:09;6.70;64.90
40758;DHT22;26462;47.384;19.218;2023-03-11T15:11:54;6.60;64.10
40758;DHT22;26462;47.384;19.218;2023-03-11T15:14:25;6.70;63.30
40758;DHT22;26462;47.384;19.218;2023-03-11T15:16:54;6.50;63.60
40758;DHT22;26462;47.384;19.218;2023-03-11T15:22:04;5.50;62.90
40758;DHT22;26462;47.384;19.218;2023-03-11T15:24:34;6.40;64.00
40758;DHT22;26462;47.384;19.218;2023-03-11T15:27:36;6.40;63.80
40758;DHT22;26462;47.384;19.218;2023-03-11T15:32:46;6.40;63.30
40758;DHT22;26462;47.384;19.218;2023-03-11T15:37:50;6.50;63.20
40758;DHT22;26462;47.384;19.218;2023-03-11T15:40:24;6.50;63.40
40758;DHT22;26462;47.384;19.218;2023-03-11T15:43:28;6.50;63.20
40758;DHT22;26462;47.384;19.218;2023-03-11T15:45:58;6.70;63.60
40758;DHT22;26462;47.384;19.218;2023-03-11T15:48:27;6.50;63.40
40758;DHT22;26462;47.384;19.218;2023-03-11T15:50:58;6.40;63.80
40758;DHT22;26462;47.384;19.218;2023-03-11T15:53:27;6.30;63.20
40758;DHT22;26462;47.384;19.218;2023-03-11T15:55:58;6.40;63.60
40758;DHT22;26462;47.384;19.218;2023-03-11T15:58:35;6.30;63.30
40758;DHT22;26462;47.384;19.218;2023-03-11T16:01:04;6.40;62.70
40758;DHT22;26462;47.384;19.218;2023-03-11T16:03:34;6.40;63.20
40758;DHT22;26462;47.384;19.218;2023-03-11T16:06:03;6.30;62.80
40758;DHT22;26462;47.384;19.218;2023-03-11T16:08:33;6.00;62.90
40758;DHT22;26462;47.384;19.218;2023-03-11T16:11:01;6.10;62.70
40758;DHT22;26462;47.384;19.218;2023-03-11T16:13:31;6.20;63.00
40758;DHT22;26462;47.384;19.218;2023-03-11T16:15:59;6.10;64.00
40758;DHT22;26462;47.384;19.218;2023-03-11T16:18:29;6.10;64.20
40758;DHT22;26462;47.384;19.218;2023-03-11T16:20:57;6.10;64.00
40758;DHT22;26462;47.384;19.218;2023-03-11T16:23:34;6.20;64.50
40758;DHT22;26462;47.384;19.218;2023-03-11T16:26:17;6.10;64.00
40758;DHT22;26462;47.384;19.218;2023-03-11T16:29:07;6.10;63.80
40758;DHT22;26462;47.384;19.218;2023-03-11T16:31:45;6.10;63.80
40758;DHT22;26462;47.384;19.218;2023-03-11T16:34:12;6.10;63.80
40758;DHT22;26462;47.384;19.218;2023-03-11T16:36:40;6.10;63.60
40758;DHT22;26462;47.384;19.218;2023-03-11T16:39:07;6.00;62.50
40758;DHT22;26462;47.384;19.218;2023-03-11T16:41:43;5.90;62.60
40758;DHT22;26462;47.384;19.218;2023-03-11T16:44:11;5.80;62.10
40758;DHT22;26462;47.384;19.218;2023-03-11T16:46:40;5.80;62.30
40758;DHT22;26462;47.384;19.218;2023-03-11T16:49:08;5.80;62.50
40758;DHT22;26462;47.384;19.218;2023-03-11T16:51:36;5.70;63.20
40758;DHT22;26462;47.384;19.218;2023-03-11T16:54:04;5.80;63.20
40758;DHT22;26462;47.384;19.218;2023-03-11T16:56:33;4.90;63.00
40758;DHT22;26462;47.384;19.218;2023-03-11T16:59:01;5.70;63.40
40758;DHT22;26462;47.384;19.218;2023-03-11T17:01:29;5.60;63.00
40758;DHT22;26462;47.384;19.218;2023-03-11T17:04:01;5.50;62.70
40758;DHT22;26462;47.384;19.218;2023-03-11T17:06:29;5.40;63.00
40758;DHT22;26462;47.384;19.218;2023-03-11T17:08:58;5.50;62.90
40758;DHT22;26462;47.384;19.218;2023-03-11T17:11:26;4.20;62.30
40758;DHT22;26462;47.384;19.218;2023-03-11T17:13:56;5.40;63.10
40758;DHT22;26462;47.384;19.218;2023-03-11T17:16:42;5.40;63.10
40758;DHT22;26462;47.384;19.218;2023-03-11T17:19:10;5.40;63.10
40758;DHT22;26462;47.384;19.218;2023-03-11T17:21:38;5.40;63.10
40758;DHT22;26462;47.384;19.218;2023-03-11T17:24:08;5.40;63.20
40758;DHT22;26462;47.384;19.218;2023-03-11T17:26:36;5.40;63.30
40758;DHT22;26462;47.384;19.218;2023-03-11T17:29:04;5.40;63.50
40758;DHT22;26462;47.384;19.218;2023-03-11T17:31:32;5.30;63.70
40758;DHT22;26462;47.384;19.218;2023-03-11T17:34:00;5.40;63.80
40758;DHT22;26462;47.384;19.218;2023-03-11T17:36:30;5.30;64.10
40758;DHT22;26462;47.384;19.218;2023-03-11T17:38:58;5.30;64.60
40758;DHT22;26462;47.384;19.218;2023-03-11T17:41:26;5.20;65.10
40758;DHT22;26462;47.384;19.218;2023-03-11T17:43:55;5.20;65.30
40758;DHT22;26462;47.384;19.218;2023-03-11T17:46:25;5.10;65.60
40758;DHT22;26462;47.384;19.218;2023-03-11T17:48:54;4.70;66.70
40758;DHT22;26462;47.384;19.218;2023-03-11T17:51:24;5.00;66.90
40758;DHT22;26462;47.384;19.218;2023-03-11T17:53:54;5.00;67.10
40758;DHT22;26462;47.384;19.218;2023-03-11T17:56:23;4.90;67.30
40758;DHT22;26462;47.384;19.218;2023-03-11T17:58:51;4.90;67.70
40758;DHT22;26462;47.384;19.218;2023-03-11T18:01:21;4.90;67.90
40758;DHT22;26462;47.384;19.218;2023-03-11T18:03:50;4.90;68.10